Cruise inventory

Prince Madog ISIS15

Cruise summary report

Cruise Info. 
Ship name (ship code)Prince Madog (74PD)
Cruise identifierISIS15
Cruise period1981-04-06 — 1981-04-10
StatusCompleted
ObjectivesSurvey cruise contributing to research directed toward an understanding of how the physics of the Irish Sea and surrounding regions (Celtic Sea, St, George's Channel, North Channel and Clyde Sea) determined biogeochemical processes and sediment transport.
Chief scientistMiguel Fernando Lavín Peregrina (University of Wales, Bangor School of Ocean Sciences)
ProjectInterdisciplinary Study of the Irish Sea
Ocean/sea areas 
GeneralIrish Sea and St. George's Channel
Measurements 
Physical oceanography 
Surface measurements underway (T,S)
CTD stationsQuantity: number of stations = 47
Transparency (eg transmissometer)Quantity: 4
Description: transmittance profiles
Optics (eg underwater light levels)Quantity: 11
Description: up-and downwelling irradiance
Biology and fisheries 
Phytoplankton pigs (eg chlorophyll, fluorescence)Quantity: 30
Description: incl. 4 vertical profiles
Dissolved organic matter (inc DOC)Quantity: 30
Description: yellow substances
SestonQuantity: 30
Meteorology 
Incident radiationDescription: surface irradiance
Data held at BODC 
Series/Profiles 
47  CTD/STD cast
Vertical spatial coordinates
Salinity of the water column
Temperature of the water column
Vertical spatial coordinates
Salinity of the water column
Temperature of the water column

BODC idDate/TimeLocationDoc.
682141981-04-09 04:00 53° 48' 32" N  5° 25' 47" W  View metadata report for BODC series reference number 68214
682261981-04-09 05:00 53° 48' 32" N  5° 25' 47" W  View metadata report for BODC series reference number 68226
682381981-04-09 06:00 53° 48' 32" N  5° 25' 47" W  View metadata report for BODC series reference number 68238
682511981-04-09 07:00 53° 48' 32" N  5° 25' 47" W  View metadata report for BODC series reference number 68251
682631981-04-09 08:00 53° 48' 32" N  5° 25' 47" W  View metadata report for BODC series reference number 68263
682751981-04-09 09:00 53° 48' 32" N  5° 25' 47" W  View metadata report for BODC series reference number 68275
682871981-04-09 10:00 53° 46' 15" N  5° 21' 50" W  View metadata report for BODC series reference number 68287
682991981-04-09 13:14 53° 45' 25" N  5° 25' 11" W  View metadata report for BODC series reference number 68299
683061981-04-09 14:38 53° 48' 32" N  4° 55' 22" W  View metadata report for BODC series reference number 68306
683181981-04-09 16:33 53° 48' 17" N  4° 41' 45" W  View metadata report for BODC series reference number 68318
680541981-04-08 10:05 53° 52' 1" N  5° 20' 45" W  View metadata report for BODC series reference number 68054
680661981-04-08 11:24 53° 55' 4" N  5° 25' 4" W  View metadata report for BODC series reference number 68066
680781981-04-08 12:53 53° 57' 32" N  5° 28' 51" W  View metadata report for BODC series reference number 68078
680911981-04-08 14:49 53° 59' 38" N  5° 33' 57" W  View metadata report for BODC series reference number 68091
681091981-04-08 16:55 53° 51' 10" N  5° 31' 1" W  View metadata report for BODC series reference number 68109
681101981-04-08 18:45 53° 48' 32" N  5° 25' 47" W  View metadata report for BODC series reference number 68110
681221981-04-08 20:00 53° 48' 32" N  5° 25' 47" W  View metadata report for BODC series reference number 68122
681341981-04-08 21:00 53° 48' 32" N  5° 25' 47" W  View metadata report for BODC series reference number 68134
681461981-04-08 22:00 53° 48' 32" N  5° 25' 47" W  View metadata report for BODC series reference number 68146
681581981-04-08 23:01 53° 48' 32" N  5° 25' 47" W  View metadata report for BODC series reference number 68158
681711981-04-09 00:00 53° 48' 32" N  5° 25' 47" W  View metadata report for BODC series reference number 68171
681831981-04-09 01:00 53° 48' 32" N  5° 25' 47" W  View metadata report for BODC series reference number 68183
681951981-04-09 02:00 53° 48' 32" N  5° 25' 47" W  View metadata report for BODC series reference number 68195
682021981-04-09 03:00 53° 48' 32" N  5° 25' 47" W  View metadata report for BODC series reference number 68202
678131981-04-06 22:31 53° 57' 10" N  5° 39' 10" W  View metadata report for BODC series reference number 67813
678251981-04-07 00:35 53° 53' 42" N  5° 35' 2" W  View metadata report for BODC series reference number 67825
678371981-04-07 02:12 53° 51' 14" N  5° 30' 53" W  View metadata report for BODC series reference number 67837
678491981-04-07 03:42 53° 48' 32" N  5° 25' 51" W  View metadata report for BODC series reference number 67849
678501981-04-07 05:04 53° 45' 57" N  5° 22' 12" W  View metadata report for BODC series reference number 67850
678621981-04-07 06:18 53° 43' 22" N  5° 16' 44" W  View metadata report for BODC series reference number 67862
678741981-04-07 07:13 53° 42' 0" N  5° 14' 49" W  View metadata report for BODC series reference number 67874
678861981-04-07 07:42 53° 41' 9" N  5° 11' 49" W  View metadata report for BODC series reference number 67886
678981981-04-07 13:25 53° 44' 31" N  5° 19' 4" W  View metadata report for BODC series reference number 67898
679051981-04-07 17:08 53° 51' 17" N  5° 30' 25" W  View metadata report for BODC series reference number 67905
679171981-04-07 18:45 53° 52' 4" N  5° 45' 25" W  View metadata report for BODC series reference number 67917
679291981-04-07 19:30 53° 49' 40" N  5° 40' 40" W  View metadata report for BODC series reference number 67929
679301981-04-07 20:13 53° 47' 52" N  5° 36' 39" W  View metadata report for BODC series reference number 67930
679421981-04-07 21:30 53° 45' 3" N  5° 31' 44" W  View metadata report for BODC series reference number 67942
679541981-04-07 22:32 53° 42' 32" N  5° 27' 0" W  View metadata report for BODC series reference number 67954
679661981-04-07 23:48 53° 39' 53" N  5° 22' 8" W  View metadata report for BODC series reference number 67966
679781981-04-08 01:36 53° 37' 1" N  5° 17' 41" W  View metadata report for BODC series reference number 67978
679911981-04-08 02:58 53° 34' 30" N  5° 13' 19" W  View metadata report for BODC series reference number 67991
680051981-04-08 04:55 53° 42' 0" N  5° 1' 44" W  View metadata report for BODC series reference number 68005
680171981-04-08 05:55 53° 44' 24" N  5° 6' 32" W  View metadata report for BODC series reference number 68017
680291981-04-08 07:18 53° 47' 2" N  5° 11' 31" W  View metadata report for BODC series reference number 68029
680301981-04-08 08:00 53° 48' 25" N  5° 13' 40" W  View metadata report for BODC series reference number 68030
680421981-04-08 08:52 53° 49' 37" N  5° 16' 8" W  View metadata report for BODC series reference number 68042